Latest Weather Observations for Badgerys Creek

IDN60901

Issued at 2:01 pm EDT Tuesday 28 February 2017 (issued every 10 minutes, with the page automatically refreshed every 10 minutes)

About weather observations | Map of Sydney area stations | Latest observations for Sydney area | Other Formats
Station Details ID: 067108 Name: BADGERYS CREEK AWS Lat: -33.90 Lon: 150.73 Height: 81.2 m
Data from the previous 72 hours. | See also: Recent months at Badgerys Creek
Date/Time
EDT
Temp
°C
App
Temp
°C
Dew
Point
°C
Rel
Hum
%
Delta-T
°C
Wind Press
QNH
hPa
Press
MSL
hPa
Rain since
9am
mm
Dir  Spd
km/h
Gust
km/h
Spd
kts
Gust
kts
28/02:00pm 24.1 27.6 22.2 89 1.3 ENE 7 7 4 4 - 1021.6 -
28/01:30pm 23.3 26.7 21.7 91 1.1 ESE 6 17 3 9 1022.3 1021.9 3.4
28/01:00pm 22.3 25.1 20.8 91 1.0 ENE 7 13 4 7 1022.5 1022.1 3.4
28/12:30pm 20.1 19.2 18.1 88 1.2 NE 20 33 11 18 1022.7 1022.3 3.2
28/12:00pm 23.8 26.2 21.5 87 1.5 E 11 19 6 10 1022.7 1022.3 0.0
28/11:30am 23.2 26.1 21.1 88 1.4 ESE 7 13 4 7 1023.0 1022.7 0.0
28/11:00am 23.7 27.6 21.8 89 1.3 SE 4 11 2 6 1023.2 1022.9 0.0
28/10:30am 24.2 27.7 22.8 92 0.9 SSE 9 13 5 7 1023.4 1023.1 0.0
28/10:00am 22.5 25.8 21.5 94 0.7 S 6 9 3 5 1023.4 1023.1 0.0
28/09:30am 21.4 24.6 20.6 95 0.5 S 4 7 2 4 1023.4 1023.1 0.0
28/09:00am 20.8 23.4 20.0 95 0.5 SSW 6 7 3 4 1023.4 1023.1 6.2
28/08:30am 20.4 22.8 19.7 96 0.4 SSW 6 7 3 4 1023.4 1023.1 6.2
28/08:00am 19.3 21.2 18.5 95 0.5 S 6 9 3 5 1023.2 1022.9 5.8
28/07:30am 18.6 19.9 17.6 94 0.6 SW 7 9 4 5 1023.0 1022.7 5.2
28/07:00am 18.3 19.0 17.1 93 0.7 SW 9 11 5 6 1022.5 1022.1 5.0
28/06:30am 18.1 19.3 16.8 92 0.8 SW 6 7 3 4 1022.3 1021.9 5.0
28/06:00am 18.6 19.9 17.1 91 0.9 SW 6 7 3 4 1022.2 1021.8 5.0
28/05:30am 18.3 19.8 16.6 90 1.0 SW 4 6 2 3 1022.1 1021.7 2.4
28/05:00am 17.9 18.6 16.1 89 1.1 SW 7 9 4 5 1021.9 1021.5 2.0
28/04:30am 18.1 18.8 16.1 88 1.2 SW 7 9 4 5 1021.9 1021.5 2.0
28/04:00am 17.6 17.7 15.4 87 1.3 SW 9 11 5 6 1021.8 1021.4 2.0
28/03:30am 18.0 18.1 15.6 86 1.4 SW 9 11 5 6 1022.1 1021.7 1.8
28/03:00am 18.5 18.8 15.9 85 1.5 SW 9 11 5 6 1022.4 1022.0 1.8
28/02:30am 18.4 19.1 15.5 83 1.7 SSW 6 9 3 5 1022.7 1022.3 1.6
28/02:00am 18.7 18.5 15.6 82 1.8 SW 11 13 6 7 1022.9 1022.6 0.0
28/01:30am 18.6 18.2 15.3 81 1.9 SW 11 13 6 7 1023.2 1022.9 0.0
28/01:00am 18.6 18.6 15.1 80 2.0 SW 9 13 5 7 1023.5 1023.2 0.0
28/12:30am 18.7 19.0 15.0 79 2.2 SSW 7 9 4 5 1023.5 1023.2 0.0
28/12:00am 19.4 19.1 15.5 78 2.3 SSW 11 13 6 7 1023.7 1023.4 0.0
 
Date/Time
EDT
Temp
°C
App
Temp
°C
Dew
Point
°C
Rel
Hum
%
Delta-T
°C
Wind Press
QNH
hPa
Press
MSL
hPa
Rain since
9am
mm
Dir  Spd
km/h
Gust
km/h
Spd
kts
Gust
kts
27/11:30pm 19.5 19.9 15.2 76 2.5 SSW 7 13 4 7 1024.0 1023.7 0.0
27/11:00pm 19.9 19.2 15.3 75 2.7 SSW 13 19 7 10 1024.0 1023.7 0.0
27/10:30pm 20.4 19.4 15.6 74 2.9 SSW 15 20 8 11 1023.9 1023.6 0.0
27/10:00pm 20.0 19.9 15.0 73 2.9 SSW 9 13 5 7 1024.0 1023.7 0.0
27/09:30pm 20.1 19.9 14.7 71 3.2 SSW 9 13 5 7 1023.9 1023.6 0.0
27/09:00pm 20.4 20.1 14.5 69 3.4 S 9 11 5 6 1023.8 1023.5 0.0
27/08:30pm 20.8 20.2 14.5 67 3.7 S 11 17 6 9 1023.5 1023.2 0.0
27/08:00pm 21.4 20.6 14.1 63 4.2 SSE 11 17 6 9 1023.5 1023.2 0.0
27/07:30pm 22.2 21.4 14.1 60 4.7 S 11 17 6 9 1023.1 1022.8 0.0
27/07:00pm 23.1 21.8 13.8 55 5.4 SSE 13 22 7 12 1023.0 1022.7 0.0
27/06:30pm 24.2 22.8 14.6 55 5.7 SSE 15 24 8 13 1022.8 1022.4 0.0
27/06:00pm 24.8 23.2 15.1 54 5.8 SE 17 28 9 15 1022.5 1022.1 0.0
27/05:30pm 25.2 23.3 15.8 56 5.7 SSE 20 30 11 16 1022.6 1022.2 0.0
27/05:00pm 25.2 22.7 16.1 57 5.6 SE 24 33 13 18 1022.5 1022.1 0.0
27/04:30pm 25.8 24.4 16.9 58 5.5 SE 20 39 11 21 1022.5 1022.1 0.0
27/04:00pm 26.6 25.7 18.2 60 5.3 SSE 20 32 11 17 1022.5 1022.1 0.0
27/03:30pm 26.5 25.8 18.6 62 5.1 SSE 20 32 11 17 1022.6 1022.2 0.0
27/03:00pm 26.3 25.6 18.7 63 4.8 SE 20 33 11 18 1022.9 1022.6 0.0
27/02:30pm 25.3 23.9 18.0 64 4.6 SE 22 30 12 16 1023.2 1022.9 0.0
27/02:00pm 25.3 24.5 18.5 66 4.3 SE 20 30 11 16 1023.5 1023.2 0.0
27/01:30pm 26.1 26.6 20.0 69 4.0 ESE 17 26 9 14 1023.5 1023.2 0.0
27/01:00pm 25.4 26.2 19.8 71 3.6 SE 15 24 8 13 1023.7 1023.4 0.0
27/12:30pm 24.2 24.7 19.3 74 3.1 SE 15 22 8 12 1024.0 1023.7 0.0
27/12:00pm 24.6 25.6 20.3 77 2.8 SSE 15 24 8 13 1024.2 1023.9 0.0
27/11:30am 23.3 25.2 19.7 80 2.3 SSE 9 15 5 8 1024.6 1024.3 0.0
27/11:00am 23.6 25.0 20.3 82 2.1 SE 13 19 7 10 1024.7 1024.4 0.0
27/10:30am 24.0 25.8 21.1 84 1.9 ESE 13 20 7 11 1024.8 1024.5 0.0
27/10:00am 22.6 24.8 20.3 87 1.5 SSE 9 15 5 8 1024.9 1024.6 0.0
27/09:30am 22.0 24.1 20.1 89 1.2 S 9 13 5 7 1024.9 1024.6 0.0
27/09:00am 21.6 24.0 20.1 91 1.0 SSW 7 13 4 7 1024.7 1024.4 2.0
27/08:30am 21.3 23.7 20.1 93 0.8 SSW 7 9 4 5 1024.3 1024.0 2.0
27/08:00am 19.7 21.4 18.5 93 0.7 SW 7 7 4 4 1024.0 1023.7 2.0
27/07:30am 18.6 20.0 17.4 93 0.7 SW 6 7 3 4 1023.6 1023.3 2.0
27/07:00am 17.5 18.4 16.2 92 0.8 SW 6 9 3 5 1023.4 1023.1 2.0
27/06:30am 17.4 18.0 15.9 91 0.9 SW 7 9 4 5 1023.1 1022.8 2.0
27/06:00am 17.1 17.5 15.4 90 1.0 SW 7 9 4 5 1022.9 1022.6 2.0
27/05:30am 16.9 17.2 15.1 89 1.0 SW 7 9 4 5 1022.8 1022.4 2.0
27/05:00am 16.7 16.1 14.7 88 1.1 WSW 11 13 6 7 1022.6 1022.2 1.8
27/04:30am 16.8 16.6 14.6 87 1.3 SW 9 11 5 6 1022.4 1022.0 1.8
27/04:00am 16.8 16.5 14.4 86 1.4 SW 9 13 5 7 1022.3 1021.9 1.8
27/03:30am 16.6 15.4 13.9 84 1.5 WSW 13 19 7 10 1022.4 1022.0 1.4
27/03:00am 16.7 15.4 13.6 82 1.7 WSW 13 17 7 9 1022.8 1022.4 1.0
27/02:30am 16.9 15.5 13.4 80 2.0 SW 13 17 7 9 1023.0 1022.7 0.2
27/02:00am 17.2 16.2 13.3 78 2.2 SW 11 15 6 8 1023.1 1022.8 0.2
27/01:30am 17.3 16.1 12.8 75 2.5 SSW 11 17 6 9 1023.4 1023.1 0.2
27/01:00am 18.8 18.3 13.9 73 2.8 SSW 9 20 5 11 1023.5 1023.2 0.0
27/12:30am 18.6 17.6 13.5 72 2.9 SW 11 15 6 8 1023.4 1023.1 0.0
27/12:00am 18.5 17.8 13.1 71 3.0 SW 9 13 5 7 1023.4 1023.1 0.0
 
Date/Time
EDT
Temp
°C
App
Temp
°C
Dew
Point
°C
Rel
Hum
%
Delta-T
°C
Wind Press
QNH
hPa
Press
MSL
hPa
Rain since
9am
mm
Dir  Spd
km/h
Gust
km/h
Spd
kts
Gust
kts
26/11:30pm 18.5 17.7 12.9 70 3.2 SW 9 13 5 7 1023.6 1023.3 0.0
26/11:00pm 18.6 17.8 12.8 69 3.3 SW 9 13 5 7 1023.9 1023.6 0.0
26/10:30pm 18.8 18.0 12.8 68 3.4 WSW 9 13 5 7 1024.1 1023.8 0.0
26/10:00pm 19.6 18.9 13.3 67 3.6 SSW 9 13 5 7 1023.9 1023.6 0.0
26/09:30pm 19.4 18.7 13.1 67 3.6 SSW 9 15 5 8 1023.8 1023.5 0.0
26/09:00pm 19.4 18.6 12.9 66 3.7 S 9 15 5 8 1023.5 1023.2 0.0
26/08:30pm 19.2 18.2 12.2 64 3.9 S 9 13 5 7 1023.1 1022.8 0.0
26/08:00pm 20.0 18.6 12.3 61 4.3 S 11 19 6 10 1022.9 1022.6 0.0
26/07:30pm 20.6 19.2 12.3 59 4.7 SSE 11 17 6 9 1022.6 1022.2 0.0
26/07:00pm 21.9 19.6 13.0 57 5.1 SE 17 28 9 15 1022.3 1021.9 0.0
26/06:30pm 23.2 21.3 14.2 57 5.3 SSE 17 24 9 13 1021.9 1021.5 0.0
26/06:00pm 23.6 22.0 14.9 58 5.2 S 17 24 9 13 1021.7 1021.3 0.0
26/05:30pm 24.4 23.2 16.1 60 5.1 SSE 17 26 9 14 1021.6 1021.2 0.0
26/05:00pm 23.2 21.7 15.3 61 4.7 SSE 17 28 9 15 1021.7 1021.3 0.0
26/04:30pm 23.8 23.0 16.1 62 4.7 SSE 15 26 8 14 1021.7 1021.3 0.0
26/04:00pm 23.9 22.6 16.7 64 4.4 SSE 19 26 10 14 1021.7 1021.3 0.0
26/03:30pm 23.7 22.5 17.0 66 4.1 S 19 28 10 15 1021.9 1021.5 0.0
26/03:00pm 23.0 22.5 16.8 68 3.8 S 15 26 8 14 1022.2 1021.8 0.0
26/02:30pm 22.8 22.0 17.0 70 3.6 S 17 26 9 14 1022.5 1022.1 0.0
26/02:00pm 22.9 22.7 17.6 72 3.3 SSE 15 22 8 12 1022.6 1022.2 0.0
26/01:30pm 22.8 22.3 17.7 73 3.2 S 17 24 9 13 1022.7 1022.3 0.0
26/01:00pm 23.6 23.7 19.1 76 2.9 SSE 17 24 9 13 1023.1 1022.8 0.0
26/12:30pm 22.6 23.2 18.6 78 2.5 SE 13 24 7 13 1023.4 1023.1 0.0
26/12:00pm 22.2 23.3 18.8 81 2.1 SSE 11 19 6 10 1023.7 1023.4 0.0
26/11:30am 20.9 20.7 17.7 82 2.0 SSE 15 22 8 12 1023.7 1023.4 0.0
26/11:00am 21.6 21.6 19.0 85 1.6 SE 17 22 9 12 1023.6 1023.3 0.0
26/10:30am 21.2 22.7 18.9 87 1.5 SSE 9 13 5 7 1023.7 1023.4 0.0
26/10:00am 20.6 22.0 18.7 89 1.2 SSW 9 13 5 7 1023.4 1023.1 0.0
26/09:30am 20.2 21.2 18.7 91 0.9 SSW 11 17 6 9 1023.1 1022.8 0.0
26/09:00am 20.2 21.7 19.0 93 0.8 SSW 9 15 5 8 1022.8 1022.4 32.6
26/08:30am 19.5 20.9 18.7 95 0.5 SW 9 17 5 9 1022.5 1022.1 32.6
26/08:00am 17.9 18.2 17.1 95 0.5 WSW 11 15 6 8 1022.2 1021.8 32.6
26/07:30am 17.3 17.8 16.5 95 0.5 SW 9 13 5 7 1021.9 1021.5 32.6
26/07:00am 17.3 17.7 16.3 94 0.6 SSW 9 13 5 7 1021.8 1021.4 32.6
26/06:30am 17.5 18.6 16.5 94 0.6 S 6 9 3 5 1021.5 1021.1 32.6
26/06:00am 17.4 17.8 16.4 94 0.6 SSW 9 15 5 8 1021.3 1020.9 32.6
26/05:30am 17.3 17.7 16.3 94 0.6 SSW 9 13 5 7 1021.0 1020.6 32.6
26/05:00am 17.5 17.9 16.4 93 0.7 SW 9 11 5 6 1020.8 1020.4 32.2
26/04:30am 17.5 18.4 16.2 92 0.8 SSW 6 11 3 6 1020.7 1020.3 30.4
26/04:00am 17.7 18.5 16.4 92 0.8 S 7 13 4 7 1020.7 1020.3 26.8
26/03:30am 17.6 18.3 16.1 91 0.9 S 7 13 4 7 1020.8 1020.4 22.2
26/03:00am 17.5 17.7 15.8 90 1.0 S 9 15 5 8 1020.8 1020.4 12.8
26/02:30am 17.6 16.7 15.8 89 1.1 SSE 15 22 8 12 1020.7 1020.3 5.6
26/02:00am 18.3 18.7 16.3 88 1.2 S 9 13 5 7 1020.7 1020.3 0.6
26/01:30am 18.4 19.1 16.2 87 1.3 SW 7 9 4 5 1020.8 1020.4 0.4
26/01:00am 18.1 18.7 15.7 86 1.4 SW 7 9 4 5 1021.0 1020.6 0.4
26/12:30am 17.8 17.8 15.1 84 1.6 WSW 9 11 5 6 1021.0 1020.6 0.2
26/12:00am 17.7 17.9 14.6 82 1.8 SW 7 7 4 4 1020.9 1020.5 0.2
 
Date/Time
EDT
Temp
°C
App
Temp
°C
Dew
Point
°C
Rel
Hum
%
Delta-T
°C
Wind Press
QNH
hPa
Press
MSL
hPa
Rain since
9am
mm
Dir  Spd
km/h
Gust
km/h
Spd
kts
Gust
kts
25/11:30pm 17.9 18.2 14.4 80 2.0 SW 6 6 3 3 1021.1 1020.7 0.2
25/11:00pm 19.6 19.0 15.7 78 2.3 SSW 13 22 7 12 1021.1 1020.7 0.0
25/10:30pm 19.9 20.2 16.0 78 2.3 SSW 9 13 5 7 1021.0 1020.6 0.0
25/10:00pm 19.8 20.1 15.9 78 2.3 SSW 9 15 5 8 1021.1 1020.7 0.0
25/09:30pm 19.9 20.2 16.0 78 2.3 SSW 9 17 5 9 1020.9 1020.5 0.0
25/09:00pm 20.1 19.6 15.9 77 2.5 SSW 13 20 7 11 1020.8 1020.4 0.0
25/08:30pm 20.0 20.7 15.6 76 2.6 SSW 6 9 3 5 1020.9 1020.5 0.0
25/08:00pm 20.3 19.8 15.9 76 2.6 SSE 13 19 7 10 1020.8 1020.4 0.0
25/07:30pm 20.5 20.0 15.9 75 2.8 S 13 17 7 9 1020.5 1020.1 0.0
25/07:00pm 20.7 20.3 16.1 75 2.8 SSE 13 19 7 10 1020.5 1020.1 0.0
25/06:30pm 20.8 20.8 16.2 75 2.8 SSE 11 20 6 11 1020.0 1019.6 0.0
25/06:00pm 20.9 20.5 16.3 75 2.8 S 13 24 7 13 1019.8 1019.4 0.0
25/05:30pm 20.4 19.4 15.6 74 2.9 S 15 24 8 13 1020.2 1019.8 0.0
25/05:00pm 21.3 21.4 16.5 74 2.9 S 11 15 6 8 1020.2 1019.8 0.0
25/04:30pm 21.1 20.7 16.3 74 2.9 SSE 13 20 7 11 1020.3 1019.9 0.0
25/04:00pm 20.9 20.8 16.1 74 2.9 SSW 11 15 6 8 1020.4 1020.0 0.0
25/03:30pm 20.8 20.3 16.0 74 2.9 S 13 20 7 11 1020.6 1020.2 0.0
25/03:00pm 21.0 20.2 16.2 74 2.9 SSW 15 24 8 13 1020.8 1020.4 0.0
25/02:30pm 21.2 21.0 16.6 75 2.8 S 13 20 7 11 1020.9 1020.5 0.0

Latest Capital City Observations: Canberra | Sydney | Melbourne | Brisbane | Adelaide | Perth | Hobart | Darwin

Other Formats:

Comma delimited format used in spreadsheet applications
http://www.bom.gov.au/fwo/IDN60901/IDN60901.94752.axf

JavaScript Object Notation format (JSON) in row-major order
http://www.bom.gov.au/fwo/IDN60901/IDN60901.94752.json